Airfield :
LOGIN :

Register | Disclaimer

   EN    FR    IT 

 










Legend :    VFR   Marginal VFR   IFR   Intensive IFR   Very Intensive IFR
Visi :
Ceiling :
>= 8 km
>= 3000ft
5 to 8 km
1000 to 3000 ft
1500m to 5 km
500 to 1000 ft
800 to 1500m
200 to 500 ft
< 800m
< 200 ft
Symbols :   Thunderstorms  Fog  Heavy snow  Heavy precipitations  Wind > 20 kt
SIGMETs :     Misc.  Thunderstorms  Icing  Turbulence  Mountain Waves  Volcanic Ashes







- Airport Elevation : 1197 ft
- IATA code : SPM


ETAD - Spangdahlem Ab

CURRENT METAR :
  • 220358Z AUTO 00000KT 9999 CLR 07/06 A3011 RMK AO2 SLP187 T00670056 TSNO

EXPIRED METARs :
  • 220258Z AUTO 00000KT 9999 FEW140 07/06 A3012 RMK AO2 SLP191 T00670057 57004 TSNO
  • 220158Z AUTO 00000KT 9999 FEW180 08/06 A3012 RMK AO2 SLP189 T00770062 TSNO

TAF TAF ETAD
Valid from the 22 at 03:00 until the 23 at 09:00 UTC


220305Z 2203/2309 26006KT 9999 SCT100 QNH3011INS
BECMG 2217/2218 31006KT 9999 BKN040 QNH3017INS
BECMG 2303/2304 04006KT 9999 BKN015 QNH3021INS
TEMPO 2304/2308 BKN010 TX19/2215Z TN05/2204Z
No reported NOTAMs for that airfield.



MET'MAP, your aeronautical weather chart ! - Copyright ORBIFLY December 2007 - Disclaimer

ORBIFLY MET'MAP TEAM :

Programming & Development : Alexandra Zaïnal
Concept & Development : Baudouin d'Aumeries
Co-Development & Prog : Marc-Olivier Méhu
Technical & hardware support : Manuel Goepfert

Contact : metmap@orbifly.com




SOURCES & CREDITS :

   NOAA